sensor_id;sensor_type;location;lat;lon;timestamp;temperature;humidity
15357;DHT22;7778;48.792;9.260;2022-09-09T00:00:12;16.00;99.90
15357;DHT22;7778;48.792;9.260;2022-09-09T00:03:07;16.10;99.90
15357;DHT22;7778;48.792;9.260;2022-09-09T00:06:04;16.10;99.90
15357;DHT22;7778;48.792;9.260;2022-09-09T00:09:02;16.10;99.90
15357;DHT22;7778;48.792;9.260;2022-09-09T00:11:58;16.10;99.90
15357;DHT22;7778;48.792;9.260;2022-09-09T00:14:52;16.10;99.90
15357;DHT22;7778;48.792;9.260;2022-09-09T00:17:45;16.00;99.90
15357;DHT22;7778;48.792;9.260;2022-09-09T00:20:40;16.00;99.90
15357;DHT22;7778;48.792;9.260;2022-09-09T00:23:32;16.00;99.90
15357;DHT22;7778;48.792;9.260;2022-09-09T00:26:26;15.80;99.90
15357;DHT22;7778;48.792;9.260;2022-09-09T00:29:26;15.80;99.90
15357;DHT22;7778;48.792;9.260;2022-09-09T00:32:16;15.90;99.90
15357;DHT22;7778;48.792;9.260;2022-09-09T00:35:14;15.80;99.90
15357;DHT22;7778;48.792;9.260;2022-09-09T00:38:10;15.70;99.90
15357;DHT22;7778;48.792;9.260;2022-09-09T00:41:05;15.80;99.90
15357;DHT22;7778;48.792;9.260;2022-09-09T00:43:57;16.00;99.90
15357;DHT22;7778;48.792;9.260;2022-09-09T00:46:59;16.00;99.90
15357;DHT22;7778;48.792;9.260;2022-09-09T00:50:00;16.20;99.90
15357;DHT22;7778;48.792;9.260;2022-09-09T00:52:57;15.90;99.90
15357;DHT22;7778;48.792;9.260;2022-09-09T00:55:52;15.80;99.90
15357;DHT22;7778;48.792;9.260;2022-09-09T00:58:43;15.70;99.90
15357;DHT22;7778;48.792;9.260;2022-09-09T01:01:36;15.70;99.90
15357;DHT22;7778;48.792;9.260;2022-09-09T01:04:29;15.90;99.90
15357;DHT22;7778;48.792;9.260;2022-09-09T01:07:21;15.90;99.90
15357;DHT22;7778;48.792;9.260;2022-09-09T01:10:11;15.80;99.90
15357;DHT22;7778;48.792;9.260;2022-09-09T01:13:05;15.70;99.90
15357;DHT22;7778;48.792;9.260;2022-09-09T01:15:59;15.80;99.90
15357;DHT22;7778;48.792;9.260;2022-09-09T01:18:49;15.80;99.90
15357;DHT22;7778;48.792;9.260;2022-09-09T01:21:45;16.10;99.90
15357;DHT22;7778;48.792;9.260;2022-09-09T01:24:38;15.90;99.90
15357;DHT22;7778;48.792;9.260;2022-09-09T01:27:27;16.00;99.90
15357;DHT22;7778;48.792;9.260;2022-09-09T01:30:16;16.00;99.90
15357;DHT22;7778;48.792;9.260;2022-09-09T01:33:03;16.00;99.90
15357;DHT22;7778;48.792;9.260;2022-09-09T01:35:52;16.10;99.90
15357;DHT22;7778;48.792;9.260;2022-09-09T01:38:40;16.10;99.90
15357;DHT22;7778;48.792;9.260;2022-09-09T01:41:26;16.20;99.90
15357;DHT22;7778;48.792;9.260;2022-09-09T01:44:13;16.20;99.90
15357;DHT22;7778;48.792;9.260;2022-09-09T01:46:59;16.20;99.90
15357;DHT22;7778;48.792;9.260;2022-09-09T01:49:45;16.20;99.90
15357;DHT22;7778;48.792;9.260;2022-09-09T01:52:38;16.20;99.90
15357;DHT22;7778;48.792;9.260;2022-09-09T01:55:32;16.10;99.90
15357;DHT22;7778;48.792;9.260;2022-09-09T01:58:29;16.10;99.90
15357;DHT22;7778;48.792;9.260;2022-09-09T02:01:30;16.00;99.90
15357;DHT22;7778;48.792;9.260;2022-09-09T02:04:34;16.00;99.90
15357;DHT22;7778;48.792;9.260;2022-09-09T02:07:31;16.00;99.90
15357;DHT22;7778;48.792;9.260;2022-09-09T02:10:29;16.00;99.90
15357;DHT22;7778;48.792;9.260;2022-09-09T02:13:19;15.90;99.90
15357;DHT22;7778;48.792;9.260;2022-09-09T02:16:08;15.90;99.90
15357;DHT22;7778;48.792;9.260;2022-09-09T02:19:01;15.80;99.90
15357;DHT22;7778;48.792;9.260;2022-09-09T02:21:50;16.00;99.90
15357;DHT22;7778;48.792;9.260;2022-09-09T02:24:37;15.90;99.90
15357;DHT22;7778;48.792;9.260;2022-09-09T02:27:24;15.90;99.90
15357;DHT22;7778;48.792;9.260;2022-09-09T02:30:11;16.00;99.90
15357;DHT22;7778;48.792;9.260;2022-09-09T02:33:00;16.00;99.90
15357;DHT22;7778;48.792;9.260;2022-09-09T02:35:48;15.90;99.90
15357;DHT22;7778;48.792;9.260;2022-09-09T02:38:37;15.90;99.90
15357;DHT22;7778;48.792;9.260;2022-09-09T02:41:30;15.90;99.90
15357;DHT22;7778;48.792;9.260;2022-09-09T02:44:18;16.00;99.90
15357;DHT22;7778;48.792;9.260;2022-09-09T02:47:24;15.90;99.90
15357;DHT22;7778;48.792;9.260;2022-09-09T02:50:13;15.90;99.90
15357;DHT22;7778;48.792;9.260;2022-09-09T02:53:08;15.70;99.90
15357;DHT22;7778;48.792;9.260;2022-09-09T02:56:04;15.80;99.90
15357;DHT22;7778;48.792;9.260;2022-09-09T02:58:52;15.80;99.90
15357;DHT22;7778;48.792;9.260;2022-09-09T03:01:38;15.70;99.90
15357;DHT22;7778;48.792;9.260;2022-09-09T03:04:24;15.60;99.90
15357;DHT22;7778;48.792;9.260;2022-09-09T03:07:10;15.70;99.90
15357;DHT22;7778;48.792;9.260;2022-09-09T03:09:57;15.70;99.90
15357;DHT22;7778;48.792;9.260;2022-09-09T03:12:43;15.70;99.90
15357;DHT22;7778;48.792;9.260;2022-09-09T03:15:30;15.70;99.90
15357;DHT22;7778;48.792;9.260;2022-09-09T03:18:15;15.70;99.90
15357;DHT22;7778;48.792;9.260;2022-09-09T03:21:01;15.60;99.90
15357;DHT22;7778;48.792;9.260;2022-09-09T03:23:47;15.60;99.90
15357;DHT22;7778;48.792;9.260;2022-09-09T03:26:34;15.50;99.90
15357;DHT22;7778;48.792;9.260;2022-09-09T03:29:21;15.50;99.90
15357;DHT22;7778;48.792;9.260;2022-09-09T03:32:07;15.50;99.90
15357;DHT22;7778;48.792;9.260;2022-09-09T03:34:54;15.60;99.90
15357;DHT22;7778;48.792;9.260;2022-09-09T03:37:39;15.50;99.90
15357;DHT22;7778;48.792;9.260;2022-09-09T03:40:26;15.40;99.90
15357;DHT22;7778;48.792;9.260;2022-09-09T03:43:12;15.30;99.90
15357;DHT22;7778;48.792;9.260;2022-09-09T03:46:00;15.20;99.90
15357;DHT22;7778;48.792;9.260;2022-09-09T03:48:46;15.20;99.90
15357;DHT22;7778;48.792;9.260;2022-09-09T03:51:31;15.30;99.90
15357;DHT22;7778;48.792;9.260;2022-09-09T03:54:21;15.30;99.90
15357;DHT22;7778;48.792;9.260;2022-09-09T03:57:06;15.40;99.90
15357;DHT22;7778;48.792;9.260;2022-09-09T03:59:53;15.50;99.90
15357;DHT22;7778;48.792;9.260;2022-09-09T04:02:39;15.40;99.90
15357;DHT22;7778;48.792;9.260;2022-09-09T04:05:24;15.40;99.90
15357;DHT22;7778;48.792;9.260;2022-09-09T04:08:11;15.40;99.90
15357;DHT22;7778;48.792;9.260;2022-09-09T04:10:57;15.60;99.90
15357;DHT22;7778;48.792;9.260;2022-09-09T04:13:43;15.70;99.90
15357;DHT22;7778;48.792;9.260;2022-09-09T04:16:30;15.80;99.90
15357;DHT22;7778;48.792;9.260;2022-09-09T04:19:15;15.80;99.90
15357;DHT22;7778;48.792;9.260;2022-09-09T04:22:01;15.70;99.90
15357;DHT22;7778;48.792;9.260;2022-09-09T04:24:46;15.20;99.90
15357;DHT22;7778;48.792;9.260;2022-09-09T04:27:33;15.30;99.90
15357;DHT22;7778;48.792;9.260;2022-09-09T04:30:18;15.30;99.90
15357;DHT22;7778;48.792;9.260;2022-09-09T04:33:05;15.10;99.90
15357;DHT22;7778;48.792;9.260;2022-09-09T04:35:51;15.00;99.90
15357;DHT22;7778;48.792;9.260;2022-09-09T04:38:37;15.00;99.90
15357;DHT22;7778;48.792;9.260;2022-09-09T04:41:23;15.10;99.90
15357;DHT22;7778;48.792;9.260;2022-09-09T04:44:08;15.10;99.90
15357;DHT22;7778;48.792;9.260;2022-09-09T04:46:55;15.20;99.90
15357;DHT22;7778;48.792;9.260;2022-09-09T04:49:41;15.30;99.90
15357;DHT22;7778;48.792;9.260;2022-09-09T04:52:27;15.40;99.90
15357;DHT22;7778;48.792;9.260;2022-09-09T04:55:13;15.50;99.90
15357;DHT22;7778;48.792;9.260;2022-09-09T04:58:03;15.40;99.90
15357;DHT22;7778;48.792;9.260;2022-09-09T05:00:50;15.20;99.90
15357;DHT22;7778;48.792;9.260;2022-09-09T05:03:36;15.00;99.90
15357;DHT22;7778;48.792;9.260;2022-09-09T05:06:24;15.10;99.90
15357;DHT22;7778;48.792;9.260;2022-09-09T05:09:10;14.90;99.90
15357;DHT22;7778;48.792;9.260;2022-09-09T05:11:55;14.80;99.90
15357;DHT22;7778;48.792;9.260;2022-09-09T05:14:42;14.70;99.90
15357;DHT22;7778;48.792;9.260;2022-09-09T05:17:27;14.60;99.90
15357;DHT22;7778;48.792;9.260;2022-09-09T05:20:13;14.60;99.90
15357;DHT22;7778;48.792;9.260;2022-09-09T05:23:00;14.50;99.90
15357;DHT22;7778;48.792;9.260;2022-09-09T05:25:55;14.60;99.90
15357;DHT22;7778;48.792;9.260;2022-09-09T05:28:41;14.70;99.90
15357;DHT22;7778;48.792;9.260;2022-09-09T05:31:29;14.80;99.90
15357;DHT22;7778;48.792;9.260;2022-09-09T05:34:16;15.00;99.90
15357;DHT22;7778;48.792;9.260;2022-09-09T05:37:02;15.30;99.90
15357;DHT22;7778;48.792;9.260;2022-09-09T05:39:49;15.40;99.90
15357;DHT22;7778;48.792;9.260;2022-09-09T05:42:35;15.50;99.90
15357;DHT22;7778;48.792;9.260;2022-09-09T05:45:21;15.50;99.90
15357;DHT22;7778;48.792;9.260;2022-09-09T05:48:06;15.60;99.90
15357;DHT22;7778;48.792;9.260;2022-09-09T05:50:53;15.50;99.90
15357;DHT22;7778;48.792;9.260;2022-09-09T05:53:39;15.60;99.90
15357;DHT22;7778;48.792;9.260;2022-09-09T05:56:28;15.70;99.90
15357;DHT22;7778;48.792;9.260;2022-09-09T05:59:14;15.70;99.90
15357;DHT22;7778;48.792;9.260;2022-09-09T06:02:00;15.70;99.90
15357;DHT22;7778;48.792;9.260;2022-09-09T06:04:45;15.70;99.90
15357;DHT22;7778;48.792;9.260;2022-09-09T06:07:32;15.80;99.90
15357;DHT22;7778;48.792;9.260;2022-09-09T06:10:17;15.80;99.90
15357;DHT22;7778;48.792;9.260;2022-09-09T06:13:04;15.80;99.90
15357;DHT22;7778;48.792;9.260;2022-09-09T06:15:50;15.90;99.90
15357;DHT22;7778;48.792;9.260;2022-09-09T06:18:36;15.90;99.90
15357;DHT22;7778;48.792;9.260;2022-09-09T06:21:23;16.00;99.90
15357;DHT22;7778;48.792;9.260;2022-09-09T06:24:10;16.20;99.90
15357;DHT22;7778;48.792;9.260;2022-09-09T06:26:57;16.10;99.90
15357;DHT22;7778;48.792;9.260;2022-09-09T06:29:44;16.00;99.90
15357;DHT22;7778;48.792;9.260;2022-09-09T06:32:29;16.00;99.90
15357;DHT22;7778;48.792;9.260;2022-09-09T06:35:18;16.00;99.90
15357;DHT22;7778;48.792;9.260;2022-09-09T06:38:04;15.90;99.90
15357;DHT22;7778;48.792;9.260;2022-09-09T06:40:54;16.00;99.90
15357;DHT22;7778;48.792;9.260;2022-09-09T06:43:42;16.20;99.90
15357;DHT22;7778;48.792;9.260;2022-09-09T06:46:30;16.40;99.90
15357;DHT22;7778;48.792;9.260;2022-09-09T06:49:17;16.60;99.90
15357;DHT22;7778;48.792;9.260;2022-09-09T06:52:02;16.60;99.90
15357;DHT22;7778;48.792;9.260;2022-09-09T06:54:48;16.60;99.90
15357;DHT22;7778;48.792;9.260;2022-09-09T06:57:34;16.70;99.90
15357;DHT22;7778;48.792;9.260;2022-09-09T07:00:19;16.70;99.90
15357;DHT22;7778;48.792;9.260;2022-09-09T07:03:06;16.90;99.90
15357;DHT22;7778;48.792;9.260;2022-09-09T07:05:56;17.00;99.90
15357;DHT22;7778;48.792;9.260;2022-09-09T07:08:48;17.30;99.90
15357;DHT22;7778;48.792;9.260;2022-09-09T07:11:37;17.50;99.90
15357;DHT22;7778;48.792;9.260;2022-09-09T07:14:25;17.60;99.90
15357;DHT22;7778;48.792;9.260;2022-09-09T07:17:11;17.60;99.90
15357;DHT22;7778;48.792;9.260;2022-09-09T07:19:58;17.60;99.90
15357;DHT22;7778;48.792;9.260;2022-09-09T07:22:44;17.80;99.90
15357;DHT22;7778;48.792;9.260;2022-09-09T07:25:29;17.90;99.90
15357;DHT22;7778;48.792;9.260;2022-09-09T07:28:15;18.30;99.90
15357;DHT22;7778;48.792;9.260;2022-09-09T07:31:02;18.30;99.90
15357;DHT22;7778;48.792;9.260;2022-09-09T07:33:48;18.50;99.90
15357;DHT22;7778;48.792;9.260;2022-09-09T07:36:38;18.70;99.90
15357;DHT22;7778;48.792;9.260;2022-09-09T07:39:24;18.80;99.90
15357;DHT22;7778;48.792;9.260;2022-09-09T07:42:10;19.10;99.90
15357;DHT22;7778;48.792;9.260;2022-09-09T07:44:57;19.20;99.90
15357;DHT22;7778;48.792;9.260;2022-09-09T07:47:43;19.20;99.90
15357;DHT22;7778;48.792;9.260;2022-09-09T07:50:29;18.70;99.90
15357;DHT22;7778;48.792;9.260;2022-09-09T07:53:17;19.20;99.90
15357;DHT22;7778;48.792;9.260;2022-09-09T07:56:06;19.20;99.90
15357;DHT22;7778;48.792;9.260;2022-09-09T07:58:54;19.60;99.90
15357;DHT22;7778;48.792;9.260;2022-09-09T08:01:42;19.90;99.90
15357;DHT22;7778;48.792;9.260;2022-09-09T08:04:29;20.10;99.90
15357;DHT22;7778;48.792;9.260;2022-09-09T08:07:14;20.30;99.90
15357;DHT22;7778;48.792;9.260;2022-09-09T08:10:02;21.70;99.90
15357;DHT22;7778;48.792;9.260;2022-09-09T08:12:49;22.80;99.90
15357;DHT22;7778;48.792;9.260;2022-09-09T08:15:34;24.20;99.90
15357;DHT22;7778;48.792;9.260;2022-09-09T08:18:20;25.10;99.90
15357;DHT22;7778;48.792;9.260;2022-09-09T08:21:07;25.40;99.90
15357;DHT22;7778;48.792;9.260;2022-09-09T08:23:56;24.70;99.90
15357;DHT22;7778;48.792;9.260;2022-09-09T08:26:46;24.30;99.90
15357;DHT22;7778;48.792;9.260;2022-09-09T08:29:33;24.70;99.90
15357;DHT22;7778;48.792;9.260;2022-09-09T08:32:18;25.80;99.90
15357;DHT22;7778;48.792;9.260;2022-09-09T08:35:05;26.80;99.90
15357;DHT22;7778;48.792;9.260;2022-09-09T08:37:55;27.40;99.90
15357;DHT22;7778;48.792;9.260;2022-09-09T08:40:44;27.20;99.90
15357;DHT22;7778;48.792;9.260;2022-09-09T08:43:34;26.60;99.90
15357;DHT22;7778;48.792;9.260;2022-09-09T08:46:24;27.80;99.90
15357;DHT22;7778;48.792;9.260;2022-09-09T08:49:34;29.00;99.90
15357;DHT22;7778;48.792;9.260;2022-09-09T08:52:30;29.70;99.90
15357;DHT22;7778;48.792;9.260;2022-09-09T08:55:23;30.00;99.90
15357;DHT22;7778;48.792;9.260;2022-09-09T08:58:14;29.10;99.90
15357;DHT22;7778;48.792;9.260;2022-09-09T09:01:19;29.10;99.90
15357;DHT22;7778;48.792;9.260;2022-09-09T09:04:27;29.90;99.90
15357;DHT22;7778;48.792;9.260;2022-09-09T09:07:31;30.60;98.00
15357;DHT22;7778;48.792;9.260;2022-09-09T09:10:31;29.90;97.50
15357;DHT22;7778;48.792;9.260;2022-09-09T09:13:30;28.70;99.10
15357;DHT22;7778;48.792;9.260;2022-09-09T09:16:27;27.80;97.70
15357;DHT22;7778;48.792;9.260;2022-09-09T09:19:17;26.80;99.90
15357;DHT22;7778;48.792;9.260;2022-09-09T09:22:13;26.40;99.90
15357;DHT22;7778;48.792;9.260;2022-09-09T09:25:09;25.40;99.90
15357;DHT22;7778;48.792;9.260;2022-09-09T09:28:00;24.20;99.90
15357;DHT22;7778;48.792;9.260;2022-09-09T09:30:53;23.70;99.90
15357;DHT22;7778;48.792;9.260;2022-09-09T09:33:47;23.10;99.90
15357;DHT22;7778;48.792;9.260;2022-09-09T09:36:38;22.60;99.90
15357;DHT22;7778;48.792;9.260;2022-09-09T09:39:27;22.20;99.90
15357;DHT22;7778;48.792;9.260;2022-09-09T09:42:16;21.50;99.90
15357;DHT22;7778;48.792;9.260;2022-09-09T09:45:08;20.80;99.90
15357;DHT22;7778;48.792;9.260;2022-09-09T09:48:05;20.70;99.90
15357;DHT22;7778;48.792;9.260;2022-09-09T09:50:56;21.90;99.90
15357;DHT22;7778;48.792;9.260;2022-09-09T09:53:43;24.40;99.90
15357;DHT22;7778;48.792;9.260;2022-09-09T09:56:29;26.40;99.90
15357;DHT22;7778;48.792;9.260;2022-09-09T09:59:23;27.40;99.90
15357;DHT22;7778;48.792;9.260;2022-09-09T10:02:19;27.90;99.90
15357;DHT22;7778;48.792;9.260;2022-09-09T10:05:15;28.00;99.90
15357;DHT22;7778;48.792;9.260;2022-09-09T10:08:05;28.30;99.90
15357;DHT22;7778;48.792;9.260;2022-09-09T10:11:04;28.40;99.90
15357;DHT22;7778;48.792;9.260;2022-09-09T10:14:08;29.10;99.90
15357;DHT22;7778;48.792;9.260;2022-09-09T10:17:12;28.80;98.20
15357;DHT22;7778;48.792;9.260;2022-09-09T10:20:16;29.10;99.80
15357;DHT22;7778;48.792;9.260;2022-09-09T10:23:17;30.10;98.10
15357;DHT22;7778;48.792;9.260;2022-09-09T10:26:24;30.30;96.10
15357;DHT22;7778;48.792;9.260;2022-09-09T10:32:45;30.30;93.90
15357;DHT22;7778;48.792;9.260;2022-09-09T10:35:35;30.20;96.10
15357;DHT22;7778;48.792;9.260;2022-09-09T10:38:29;30.10;95.40
15357;DHT22;7778;48.792;9.260;2022-09-09T10:41:19;30.10;93.80
15357;DHT22;7778;48.792;9.260;2022-09-09T10:44:23;30.20;95.40
15357;DHT22;7778;48.792;9.260;2022-09-09T10:47:37;29.80;92.50
15357;DHT22;7778;48.792;9.260;2022-09-09T10:50:42;30.20;94.10
15357;DHT22;7778;48.792;9.260;2022-09-09T10:53:46;30.60;91.70
15357;DHT22;7778;48.792;9.260;2022-09-09T10:56:39;28.80;91.00
15357;DHT22;7778;48.792;9.260;2022-09-09T10:59:31;27.30;93.50
15357;DHT22;7778;48.792;9.260;2022-09-09T11:02:26;27.00;97.10
15357;DHT22;7778;48.792;9.260;2022-09-09T11:05:18;26.70;98.60
15357;DHT22;7778;48.792;9.260;2022-09-09T11:08:10;26.20;99.90
15357;DHT22;7778;48.792;9.260;2022-09-09T11:11:03;26.30;99.60
15357;DHT22;7778;48.792;9.260;2022-09-09T11:13:53;26.50;99.90
15357;DHT22;7778;48.792;9.260;2022-09-09T11:16:45;27.30;99.50
15357;DHT22;7778;48.792;9.260;2022-09-09T11:19:35;26.90;99.40
15357;DHT22;7778;48.792;9.260;2022-09-09T11:22:29;26.30;99.90
15357;DHT22;7778;48.792;9.260;2022-09-09T11:25:19;25.80;99.90
15357;DHT22;7778;48.792;9.260;2022-09-09T11:28:28;25.40;99.90
15357;DHT22;7778;48.792;9.260;2022-09-09T11:31:34;24.90;99.80
15357;DHT22;7778;48.792;9.260;2022-09-09T11:34:39;24.00;99.90
15357;DHT22;7778;48.792;9.260;2022-09-09T11:38:03;23.40;99.90
15357;DHT22;7778;48.792;9.260;2022-09-09T11:40:59;22.60;99.70
15357;DHT22;7778;48.792;9.260;2022-09-09T11:43:51;21.70;99.90
15357;DHT22;7778;48.792;9.260;2022-09-09T11:46:38;21.40;99.90
15357;DHT22;7778;48.792;9.260;2022-09-09T11:49:28;21.10;99.90
15357;DHT22;7778;48.792;9.260;2022-09-09T11:52:22;21.00;99.90
15357;DHT22;7778;48.792;9.260;2022-09-09T11:55:11;21.00;99.90
15357;DHT22;7778;48.792;9.260;2022-09-09T11:58:16;21.20;99.90
15357;DHT22;7778;48.792;9.260;2022-09-09T12:01:15;21.40;99.90
15357;DHT22;7778;48.792;9.260;2022-09-09T12:04:17;21.50;99.90
15357;DHT22;7778;48.792;9.260;2022-09-09T12:07:26;21.80;99.90
15357;DHT22;7778;48.792;9.260;2022-09-09T12:10:22;22.10;99.90
15357;DHT22;7778;48.792;9.260;2022-09-09T12:13:17;22.30;99.90
15357;DHT22;7778;48.792;9.260;2022-09-09T12:16:04;22.30;99.90
15357;DHT22;7778;48.792;9.260;2022-09-09T12:18:51;23.00;99.90
15357;DHT22;7778;48.792;9.260;2022-09-09T12:21:54;23.80;99.90
15357;DHT22;7778;48.792;9.260;2022-09-09T12:24:49;23.70;99.90
15357;DHT22;7778;48.792;9.260;2022-09-09T12:27:44;23.60;99.90
15357;DHT22;7778;48.792;9.260;2022-09-09T12:30:49;23.40;99.90
15357;DHT22;7778;48.792;9.260;2022-09-09T12:33:40;23.30;99.90
15357;DHT22;7778;48.792;9.260;2022-09-09T12:36:32;23.90;99.90
15357;DHT22;7778;48.792;9.260;2022-09-09T12:39:21;24.40;99.30
15357;DHT22;7778;48.792;9.260;2022-09-09T12:42:16;24.70;99.10
15357;DHT22;7778;48.792;9.260;2022-09-09T12:45:14;24.70;98.70
15357;DHT22;7778;48.792;9.260;2022-09-09T12:48:04;25.10;99.20
15357;DHT22;7778;48.792;9.260;2022-09-09T12:50:53;24.90;97.60
15357;DHT22;7778;48.792;9.260;2022-09-09T12:53:41;24.40;96.10
15357;DHT22;7778;48.792;9.260;2022-09-09T12:56:29;24.00;96.20
15357;DHT22;7778;48.792;9.260;2022-09-09T12:59:23;24.10;98.40
15357;DHT22;7778;48.792;9.260;2022-09-09T13:02:18;24.00;96.60
15357;DHT22;7778;48.792;9.260;2022-09-09T13:05:15;23.70;97.00
15357;DHT22;7778;48.792;9.260;2022-09-09T13:08:04;23.70;98.80
15357;DHT22;7778;48.792;9.260;2022-09-09T13:10:55;24.00;97.60
15357;DHT22;7778;48.792;9.260;2022-09-09T13:13:43;23.90;98.90
15357;DHT22;7778;48.792;9.260;2022-09-09T13:16:36;24.00;98.10
15357;DHT22;7778;48.792;9.260;2022-09-09T13:19:22;23.90;99.30
15357;DHT22;7778;48.792;9.260;2022-09-09T13:22:12;23.70;98.90
15357;DHT22;7778;48.792;9.260;2022-09-09T13:25:00;23.30;98.10
15357;DHT22;7778;48.792;9.260;2022-09-09T13:28:00;23.10;98.80
15357;DHT22;7778;48.792;9.260;2022-09-09T13:30:56;22.80;99.60
15357;DHT22;7778;48.792;9.260;2022-09-09T13:33:44;23.00;99.90
15357;DHT22;7778;48.792;9.260;2022-09-09T13:36:31;23.00;99.90
15357;DHT22;7778;48.792;9.260;2022-09-09T13:39:18;23.20;98.40
15357;DHT22;7778;48.792;9.260;2022-09-09T13:42:05;23.40;99.10
15357;DHT22;7778;48.792;9.260;2022-09-09T13:44:53;23.50;99.10
15357;DHT22;7778;48.792;9.260;2022-09-09T13:47:39;23.80;99.60
15357;DHT22;7778;48.792;9.260;2022-09-09T13:50:28;24.00;98.60
15357;DHT22;7778;48.792;9.260;2022-09-09T13:53:14;24.00;97.80
15357;DHT22;7778;48.792;9.260;2022-09-09T13:56:00;23.80;97.20
15357;DHT22;7778;48.792;9.260;2022-09-09T13:58:47;23.10;96.60
15357;DHT22;7778;48.792;9.260;2022-09-09T14:01:34;22.70;98.20
15357;DHT22;7778;48.792;9.260;2022-09-09T14:04:22;22.80;99.80
15357;DHT22;7778;48.792;9.260;2022-09-09T14:07:10;22.80;97.90
15357;DHT22;7778;48.792;9.260;2022-09-09T14:09:57;23.10;98.60
15357;DHT22;7778;48.792;9.260;2022-09-09T14:12:44;23.30;99.00
15357;DHT22;7778;48.792;9.260;2022-09-09T14:15:31;23.30;98.00
15357;DHT22;7778;48.792;9.260;2022-09-09T14:18:17;23.50;98.00
15357;DHT22;7778;48.792;9.260;2022-09-09T14:21:03;23.70;99.30
15357;DHT22;7778;48.792;9.260;2022-09-09T14:23:49;24.00;98.90
15357;DHT22;7778;48.792;9.260;2022-09-09T14:26:34;23.70;97.20
15357;DHT22;7778;48.792;9.260;2022-09-09T14:29:22;23.40;97.70
15357;DHT22;7778;48.792;9.260;2022-09-09T14:32:09;23.30;97.80
15357;DHT22;7778;48.792;9.260;2022-09-09T14:34:56;23.20;97.50
15357;DHT22;7778;48.792;9.260;2022-09-09T14:37:42;23.10;98.70
15357;DHT22;7778;48.792;9.260;2022-09-09T14:40:29;23.00;98.40
15357;DHT22;7778;48.792;9.260;2022-09-09T14:43:15;23.00;98.30
15357;DHT22;7778;48.792;9.260;2022-09-09T14:46:05;23.10;97.90
15357;DHT22;7778;48.792;9.260;2022-09-09T14:48:50;23.10;97.00
15357;DHT22;7778;48.792;9.260;2022-09-09T14:51:37;22.80;96.20
15357;DHT22;7778;48.792;9.260;2022-09-09T14:54:23;22.50;96.10
15357;DHT22;7778;48.792;9.260;2022-09-09T14:57:08;22.50;97.20
15357;DHT22;7778;48.792;9.260;2022-09-09T14:59:54;22.80;97.80
15357;DHT22;7778;48.792;9.260;2022-09-09T15:02:41;22.80;97.60
15357;DHT22;7778;48.792;9.260;2022-09-09T15:05:26;22.70;97.80
15357;DHT22;7778;48.792;9.260;2022-09-09T15:08:15;22.60;97.80
15357;DHT22;7778;48.792;9.260;2022-09-09T15:11:02;22.70;97.00
15357;DHT22;7778;48.792;9.260;2022-09-09T15:13:51;23.00;97.90
15357;DHT22;7778;48.792;9.260;2022-09-09T15:16:38;23.20;97.00
15357;DHT22;7778;48.792;9.260;2022-09-09T15:19:24;23.40;95.90
15357;DHT22;7778;48.792;9.260;2022-09-09T15:22:10;23.40;95.90
15357;DHT22;7778;48.792;9.260;2022-09-09T15:24:57;23.10;95.70
15357;DHT22;7778;48.792;9.260;2022-09-09T15:27:43;22.80;96.10
15357;DHT22;7778;48.792;9.260;2022-09-09T15:30:29;22.50;95.90
15357;DHT22;7778;48.792;9.260;2022-09-09T15:33:15;22.20;97.00
15357;DHT22;7778;48.792;9.260;2022-09-09T15:36:01;22.00;96.30
15357;DHT22;7778;48.792;9.260;2022-09-09T15:38:57;22.00;97.30
15357;DHT22;7778;48.792;9.260;2022-09-09T15:41:45;22.10;97.80
15357;DHT22;7778;48.792;9.260;2022-09-09T15:44:38;22.20;97.00
15357;DHT22;7778;48.792;9.260;2022-09-09T15:47:26;22.20;96.70
15357;DHT22;7778;48.792;9.260;2022-09-09T15:50:12;22.10;97.10
15357;DHT22;7778;48.792;9.260;2022-09-09T15:52:58;22.10;98.00
15357;DHT22;7778;48.792;9.260;2022-09-09T15:55:43;22.00;98.10
15357;DHT22;7778;48.792;9.260;2022-09-09T15:58:31;21.80;98.40
15357;DHT22;7778;48.792;9.260;2022-09-09T16:01:17;21.70;98.80
15357;DHT22;7778;48.792;9.260;2022-09-09T16:04:03;21.60;99.40
15357;DHT22;7778;48.792;9.260;2022-09-09T16:06:50;21.50;99.90
15357;DHT22;7778;48.792;9.260;2022-09-09T16:09:36;21.30;99.10
15357;DHT22;7778;48.792;9.260;2022-09-09T16:12:21;21.30;99.30
15357;DHT22;7778;48.792;9.260;2022-09-09T16:15:08;21.20;99.00
15357;DHT22;7778;48.792;9.260;2022-09-09T16:17:54;21.20;99.40
15357;DHT22;7778;48.792;9.260;2022-09-09T16:20:40;21.10;99.00
15357;DHT22;7778;48.792;9.260;2022-09-09T16:23:26;21.10;98.10
15357;DHT22;7778;48.792;9.260;2022-09-09T16:26:13;21.00;97.90
15357;DHT22;7778;48.792;9.260;2022-09-09T16:29:00;21.00;98.80
15357;DHT22;7778;48.792;9.260;2022-09-09T16:31:49;21.00;99.10
15357;DHT22;7778;48.792;9.260;2022-09-09T16:34:35;21.10;98.70
15357;DHT22;7778;48.792;9.260;2022-09-09T16:37:21;21.00;99.50
15357;DHT22;7778;48.792;9.260;2022-09-09T16:40:07;20.90;99.20
15357;DHT22;7778;48.792;9.260;2022-09-09T16:42:54;20.90;99.90
15357;DHT22;7778;48.792;9.260;2022-09-09T16:45:43;20.80;99.90
15357;DHT22;7778;48.792;9.260;2022-09-09T16:48:32;20.70;99.90
15357;DHT22;7778;48.792;9.260;2022-09-09T16:51:21;20.50;99.90
15357;DHT22;7778;48.792;9.260;2022-09-09T16:54:09;20.30;99.90
15357;DHT22;7778;48.792;9.260;2022-09-09T16:56:56;20.20;99.90
15357;DHT22;7778;48.792;9.260;2022-09-09T16:59:42;20.00;99.90
15357;DHT22;7778;48.792;9.260;2022-09-09T17:02:28;20.00;99.90
15357;DHT22;7778;48.792;9.260;2022-09-09T17:05:15;19.90;99.90
15357;DHT22;7778;48.792;9.260;2022-09-09T17:08:01;19.90;99.90
15357;DHT22;7778;48.792;9.260;2022-09-09T17:10:49;19.90;99.90
15357;DHT22;7778;48.792;9.260;2022-09-09T17:13:35;19.80;99.90
15357;DHT22;7778;48.792;9.260;2022-09-09T17:16:22;19.70;99.90
15357;DHT22;7778;48.792;9.260;2022-09-09T17:19:11;19.70;99.90
15357;DHT22;7778;48.792;9.260;2022-09-09T17:21:59;19.80;99.90
15357;DHT22;7778;48.792;9.260;2022-09-09T17:24:45;19.70;99.90
15357;DHT22;7778;48.792;9.260;2022-09-09T17:27:31;19.60;99.90
15357;DHT22;7778;48.792;9.260;2022-09-09T17:30:17;19.60;99.90
15357;DHT22;7778;48.792;9.260;2022-09-09T17:33:03;19.40;99.90
15357;DHT22;7778;48.792;9.260;2022-09-09T17:35:51;19.40;99.90
15357;DHT22;7778;48.792;9.260;2022-09-09T17:38:38;19.30;99.90
15357;DHT22;7778;48.792;9.260;2022-09-09T17:41:25;19.30;99.90
15357;DHT22;7778;48.792;9.260;2022-09-09T17:44:11;19.20;99.90
15357;DHT22;7778;48.792;9.260;2022-09-09T17:46:57;19.20;99.90
15357;DHT22;7778;48.792;9.260;2022-09-09T17:49:43;19.10;99.90
15357;DHT22;7778;48.792;9.260;2022-09-09T17:52:29;19.10;99.90
15357;DHT22;7778;48.792;9.260;2022-09-09T17:55:16;19.10;99.90
15357;DHT22;7778;48.792;9.260;2022-09-09T17:58:02;19.10;99.90
15357;DHT22;7778;48.792;9.260;2022-09-09T18:00:48;19.10;99.90
15357;DHT22;7778;48.792;9.260;2022-09-09T18:03:34;19.10;99.90
15357;DHT22;7778;48.792;9.260;2022-09-09T18:06:23;19.00;99.90
15357;DHT22;7778;48.792;9.260;2022-09-09T18:09:12;18.90;99.90
15357;DHT22;7778;48.792;9.260;2022-09-09T18:12:01;18.80;99.90